Time;durP1;ratioP1;P1;durP2;ratioP2;P2;SDS_P1;SDS_P2;PMS_P1;PMS_P2;Temp;Humidity;BMP_temperature;BMP_pressure;BME280_temperature;BME280_humidity;BME280_pressure;Samples;Min_cycle;Max_cycle;Signal;HPM_P1;HPM_P2
2022/10/12 00:00:25;;;;;;;31.10;19.33;;;;;;;12.40;94.34;96897.75;5038491;28;20392;-79
2022/10/12 00:02:51;;;;;;;28.42;19.13;;;;;;;12.33;94.24;96897.44;5038015;28;20130;-79
2022/10/12 00:05:18;;;;;;;27.98;18.25;;;;;;;12.31;94.41;96899.66;5025848;28;20048;-78
2022/10/12 00:07:45;;;;;;;31.02;19.65;;;;;;;12.25;94.41;96896.25;5017905;28;20057;-78
2022/10/12 00:10:11;;;;;;;29.02;18.85;;;;;;;12.22;94.47;96896.91;5026298;28;20049;-78
2022/10/12 00:12:38;;;;;;;28.75;20.63;;;;;;;12.16;94.54;96898.13;5037246;28;20041;-78
2022/10/12 00:15:06;;;;;;;30.20;19.55;;;;;;;12.18;94.88;96888.53;5035167;28;20107;-78
2022/10/12 00:17:34;;;;;;;25.17;17.92;;;;;;;12.17;95.21;96892.38;5031348;28;20190;-79
2022/10/12 00:20:00;;;;;;;30.83;20.27;;;;;;;12.18;95.27;96885.81;5038470;28;20049;-78
2022/10/12 00:22:27;;;;;;;31.42;19.27;;;;;;;12.22;95.20;96891.44;5036808;28;20042;-79
2022/10/12 00:24:53;;;;;;;29.98;20.35;;;;;;;12.19;94.86;96887.41;5037014;28;20132;-79
2022/10/12 00:27:20;;;;;;;26.25;18.75;;;;;;;12.19;95.08;96887.41;5036614;28;20407;-78
2022/10/12 00:29:47;;;;;;;34.17;21.60;;;;;;;12.13;95.40;96877.75;5035821;28;20057;-79
2022/10/12 00:32:14;;;;;;;35.25;20.67;;;;;;;12.17;95.41;96884.19;5036311;28;20053;-79
2022/10/12 00:34:42;;;;;;;29.67;19.75;;;;;;;12.21;95.61;96889.81;5037218;28;20045;-79
2022/10/12 00:37:08;;;;;;;35.20;21.60;;;;;;;12.23;95.43;96893.84;5036730;28;20052;-79
2022/10/12 00:39:35;;;;;;;30.90;20.83;;;;;;;12.24;95.43;96884.53;5037988;28;20073;-78
2022/10/12 00:42:02;;;;;;;32.63;20.98;;;;;;;12.25;95.44;96886.13;5038543;28;20406;-77
2022/10/12 00:44:37;;;;;;;30.40;20.23;;;;;;;12.27;95.38;96883.91;5045615;28;20495;-83
2022/10/12 00:47:09;;;;;;;30.88;20.23;;;;;;;12.26;94.90;96876.81;5034863;28;20046;-81
2022/10/12 00:49:37;;;;;;;28.63;19.58;;;;;;;12.21;94.61;96874.22;5032631;28;20045;-81
2022/10/12 00:52:08;;;;;;;32.40;21.20;;;;;;;12.15;94.61;96871.97;5047675;28;20045;-80
2022/10/12 00:54:39;;;;;;;32.28;20.17;;;;;;;12.06;94.71;96877.41;5042839;28;20049;-81
2022/10/12 00:57:09;;;;;;;30.75;19.83;;;;;;;12.06;94.89;96871.13;5039891;28;20553;-79
2022/10/12 00:59:42;;;;;;;29.70;21.35;;;;;;;12.00;94.97;96873.19;5039585;28;20049;-78
2022/10/12 01:02:09;;;;;;;;;;;;;;;12.00;95.33;96862.25;5039684;28;20045;-78
2022/10/12 01:04:37;;;;;;;32.58;19.33;;;;;;;12.00;95.42;96868.53;5039057;28;20310;-80
2022/10/12 01:07:06;;;;;;;34.55;19.98;;;;;;;12.01;95.90;96861.16;5038307;28;20542;-78
2022/10/12 01:09:33;;;;;;;30.45;19.98;;;;;;;12.02;95.65;96868.22;5039522;28;20042;-79
2022/10/12 01:12:00;;;;;;;27.50;19.98;;;;;;;12.04;95.98;96863.25;5039463;28;20045;-80
2022/10/12 01:14:27;;;;;;;30.75;20.85;;;;;;;12.07;96.18;96865.38;5035226;28;20185;-79
2022/10/12 01:16:59;;;;;;;34.72;21.42;;;;;;;12.11;96.30;96871.81;5039476;28;20518;-78
2022/10/12 01:19:48;;;;;;;28.77;20.00;;;;;;;12.12;96.13;96867.94;5037521;28;20045;-79
2022/10/12 01:22:19;;;;;;;33.47;21.52;;;;;;;12.09;96.23;96879.50;5037337;28;20049;-80
2022/10/12 01:24:51;;;;;;;31.92;21.30;;;;;;;12.12;96.10;96870.69;5037503;28;20050;-79
2022/10/12 01:27:29;;;;;;;32.80;21.77;;;;;;;12.10;96.19;96881.09;5037342;28;20053;-78
2022/10/12 01:30:09;;;;;;;28.70;21.25;;;;;;;12.07;96.47;96879.00;5036640;28;20091;-78
2022/10/12 01:32:44;;;;;;;39.88;22.90;;;;;;;12.11;96.00;96877.28;5018638;28;20050;-79
2022/10/12 01:35:20;;;;;;;35.13;22.17;;;;;;;12.06;95.95;96871.13;5025207;28;20049;-77
2022/10/12 01:37:56;;;;;;;33.97;22.25;;;;;;;12.02;96.44;96873.69;5039622;28;20055;-79
2022/10/12 01:40:29;;;;;;;39.92;24.92;;;;;;;11.91;96.78;96880.53;5039405;28;20052;-78
2022/10/12 01:42:57;;;;;;;34.05;22.35;;;;;;;11.98;96.89;96875.44;5038838;28;20053;-78
2022/10/12 01:45:25;;;;;;;31.60;21.15;;;;;;;12.05;96.47;96875.78;5032007;28;20065;-78
2022/10/12 01:47:53;;;;;;;38.17;23.60;;;;;;;12.06;95.75;96869.22;5040340;28;20045;-79
2022/10/12 01:50:25;;;;;;;34.95;23.08;;;;;;;12.05;95.81;96875.78;5041410;28;20053;-80
2022/10/12 01:53:01;;;;;;;31.98;22.83;;;;;;;12.00;96.25;96867.72;5041711;28;20065;-78
2022/10/12 01:55:37;;;;;;;29.42;20.20;;;;;;;12.08;96.34;96869.69;5043155;28;20041;-82
2022/10/12 01:58:22;;;;;;;35.58;21.90;;;;;;;12.15;96.04;96880.16;5043928;28;20053;-78
2022/10/12 02:00:58;;;;;;;32.88;21.42;;;;;;;12.12;95.59;96876.16;5043787;28;20056;-78
2022/10/12 02:03:34;;;;;;;34.70;21.52;;;;;;;12.12;95.98;96875.34;5044152;28;20144;-80
2022/10/12 02:06:03;;;;;;;31.42;21.95;;;;;;;12.15;95.96;96872.75;5042961;28;20417;-78
2022/10/12 02:08:35;;;;;;;34.58;21.30;;;;;;;12.15;95.80;96875.50;5043375;28;20411;-79
2022/10/12 02:11:06;;;;;;;30.92;21.63;;;;;;;12.13;95.70;96874.22;5041352;28;20050;-78
2022/10/12 02:13:37;;;;;;;33.13;21.15;;;;;;;12.12;95.47;96875.34;5045410;28;20041;-78
2022/10/12 02:16:09;;;;;;;32.50;21.75;;;;;;;12.12;95.66;96873.41;5042947;28;20050;-80
2022/10/12 02:18:40;;;;;;;37.20;23.40;;;;;;;12.12;95.75;96878.06;5046746;28;20052;-80
2022/10/12 02:21:09;;;;;;;32.97;21.92;;;;;;;12.12;95.71;96876.16;5046861;28;20041;-78
2022/10/12 02:23:37;;;;;;;33.45;23.15;;;;;;;12.11;95.82;96874.53;5049157;28;20063;-81
2022/10/12 02:26:06;;;;;;;30.15;22.52;;;;;;;12.12;95.88;96875.34;5050104;28;20128;-79
2022/10/12 02:28:35;;;;;;;30.45;21.35;;;;;;;12.13;95.98;96871.50;5046924;28;20048;-78
2022/10/12 02:31:11;;;;;;;37.83;24.58;;;;;;;12.13;96.42;96877.75;5044323;28;20053;-80
2022/10/12 02:33:44;;;;;;;36.70;23.58;;;;;;;12.20;96.69;96871.81;5042213;28;20045;-78
2022/10/12 02:36:15;;;;;;;30.67;21.75;;;;;;;12.21;96.62;96874.22;5041938;28;20057;-80
2022/10/12 02:38:49;;;;;;;36.88;23.95;;;;;;;12.18;96.78;96868.63;5040534;28;20048;-80
2022/10/12 02:41:20;;;;;;;32.13;23.80;;;;;;;12.13;96.97;96875.03;5039043;28;20049;-79
2022/10/12 02:43:52;;;;;;;36.63;23.67;;;;;;;12.22;96.64;96870.41;5039409;28;20053;-80
2022/10/12 02:46:24;;;;;;;38.72;23.35;;;;;;;12.27;96.41;96864.81;5039614;28;20045;-80
2022/10/12 02:48:54;;;;;;;37.33;23.80;;;;;;;12.27;96.09;96873.00;5040335;28;20423;-80
2022/10/12 02:51:21;;;;;;;33.28;22.35;;;;;;;12.28;96.10;96869.13;5024235;28;20050;-79
2022/10/12 02:53:48;;;;;;;33.50;22.58;;;;;;;12.28;96.39;96862.88;5023815;28;20074;-80
2022/10/12 02:56:15;;;;;;;32.33;21.58;;;;;;;12.30;96.61;96876.19;5022913;28;20046;-80
2022/10/12 02:58:44;;;;;;;34.35;22.42;;;;;;;12.32;96.84;96861.13;5023113;28;20042;-80
2022/10/12 03:01:11;;;;;;;31.15;21.73;;;;;;;12.36;96.91;96855.81;5023801;28;20049;-79
2022/10/12 03:03:39;;;;;;;35.45;21.50;;;;;;;12.36;96.86;96858.53;5036872;28;20049;-79
2022/10/12 03:06:06;;;;;;;38.80;23.00;;;;;;;12.30;97.01;96860.63;5045860;28;20041;-79
2022/10/12 03:08:33;;;;;;;43.55;25.23;;;;;;;12.28;96.90;96855.47;5042257;28;20041;-78
2022/10/12 03:11:02;;;;;;;34.10;22.27;;;;;;;12.27;96.85;96850.34;5024428;28;20053;-77
2022/10/12 03:13:28;;;;;;;40.53;23.73;;;;;;;12.30;97.05;96860.63;5040357;28;20119;-78
2022/10/12 03:16:01;;;;;;;43.83;25.70;;;;;;;12.33;97.10;96854.53;5040674;28;20045;-80
2022/10/12 03:18:28;;;;;;;44.42;26.48;;;;;;;12.36;97.13;96853.09;5041004;28;20038;-79
2022/10/12 03:20:56;;;;;;;36.50;24.67;;;;;;;12.37;97.46;96846.50;5040046;28;20072;-79
2022/10/12 03:23:22;;;;;;;45.70;26.40;;;;;;;12.36;97.43;96853.09;5041666;28;20045;-79
2022/10/12 03:25:49;;;;;;;44.78;26.63;;;;;;;12.36;97.10;96847.63;5044183;28;20060;-79
2022/10/12 03:28:15;;;;;;;49.97;28.48;;;;;;;12.30;97.59;96843.44;5047154;28;20049;-80
2022/10/12 03:30:42;;;;;;;46.85;26.75;;;;;;;12.30;97.36;96846.97;5049370;28;20038;-80
2022/10/12 03:33:09;;;;;;;46.58;25.00;;;;;;;12.39;97.42;96857.91;5047956;28;20069;-81
2022/10/12 03:35:36;;;;;;;42.25;25.73;;;;;;;12.43;97.38;96848.78;5049575;28;20053;-80
2022/10/12 03:38:04;;;;;;;38.92;24.98;;;;;;;12.47;97.10;96843.47;5048986;28;20057;-80
2022/10/12 03:40:30;;;;;;;41.65;24.33;;;;;;;12.52;97.22;96849.59;5049169;28;20043;-80
2022/10/12 03:42:57;;;;;;;48.25;25.65;;;;;;;12.52;96.83;96852.31;5044009;28;20053;-79
2022/10/12 03:45:24;;;;;;;38.20;24.23;;;;;;;12.52;96.63;96851.50;5039889;28;20052;-80
2022/10/12 03:47:50;;;;;;;43.38;26.20;;;;;;;12.52;96.42;96846.03;5046556;28;20059;-81
2022/10/12 03:50:17;;;;;;;41.15;24.05;;;;;;;12.55;96.58;96850.88;5046344;28;20065;-80
2022/10/12 03:52:43;;;;;;;44.13;25.00;;;;;;;12.57;96.70;96848.63;5049241;28;20037;-80
2022/10/12 03:55:12;;;;;;;39.05;24.48;;;;;;;12.61;96.73;96855.06;5046740;28;20041;-80
2022/10/12 03:57:38;;;;;;;41.78;25.23;;;;;;;12.66;96.83;96845.94;5047392;28;20105;-80
2022/10/12 04:00:06;;;;;;;45.50;26.00;;;;;;;12.61;96.51;96855.06;5043671;28;20033;-80
2022/10/12 04:02:33;;;;;;;37.45;23.80;;;;;;;12.61;96.59;96857.00;5033038;28;20037;-80
2022/10/12 04:05:00;;;;;;;36.78;23.15;;;;;;;12.63;96.70;96854.75;5050474;28;20045;-80
2022/10/12 04:07:26;;;;;;;42.15;24.52;;;;;;;12.62;96.43;96850.41;5047870;28;20021;-79
2022/10/12 04:09:53;;;;;;;39.47;23.42;;;;;;;12.62;96.65;96855.88;5051983;28;20056;-80
2022/10/12 04:12:20;;;;;;;46.20;26.50;;;;;;;12.59;96.05;96853.78;5046193;28;20113;-80
2022/10/12 04:14:47;;;;;;;43.00;25.42;;;;;;;12.57;96.21;96856.81;5039077;28;20140;-79
2022/10/12 04:17:14;;;;;;;34.88;23.58;;;;;;;12.55;96.10;96864.56;5044757;28;20045;-79
2022/10/12 04:19:41;;;;;;;45.78;24.90;;;;;;;12.49;96.33;96860.34;5042618;28;20136;-79
2022/10/12 04:22:08;;;;;;;39.25;24.05;;;;;;;12.46;96.24;96858.25;5045619;28;20128;-80
2022/10/12 04:24:35;;;;;;;36.70;24.98;;;;;;;12.45;96.28;96856.66;5046083;28;20046;-80
2022/10/12 04:27:01;;;;;;;35.28;23.83;;;;;;;12.43;96.56;96858.91;5045631;28;20057;-79
2022/10/12 04:29:30;;;;;;;38.25;24.67;;;;;;;12.47;96.81;96859.84;5045769;28;20057;-84
2022/10/12 04:31:56;;;;;;;35.20;24.60;;;;;;;12.46;97.12;96864.50;5046247;28;20057;-81
2022/10/12 04:34:23;;;;;;;39.17;24.58;;;;;;;12.52;97.05;96867.91;5047641;28;20052;-81
2022/10/12 04:36:50;;;;;;;34.30;23.77;;;;;;;12.57;97.03;96873.22;5047831;28;20061;-81
2022/10/12 04:39:16;;;;;;;34.08;22.25;;;;;;;12.57;96.95;96869.69;5048230;28;20105;-81
2022/10/12 04:41:43;;;;;;;36.83;24.25;;;;;;;12.61;96.81;96874.19;5047251;28;20049;-82
2022/10/12 04:44:10;;;;;;;39.63;24.95;;;;;;;12.59;96.00;96867.47;5042981;28;20046;-81
2022/10/12 04:46:38;;;;;;;40.67;24.38;;;;;;;12.55;96.09;96864.56;5027805;28;20415;-81
2022/10/12 04:49:04;;;;;;;33.53;22.25;;;;;;;12.56;96.49;96873.53;5028692;28;20053;-80
2022/10/12 04:51:31;;;;;;;37.00;23.83;;;;;;;12.52;96.73;96873.38;5028740;28;20429;-82
2022/10/12 04:53:57;;;;;;;38.35;24.05;;;;;;;12.48;96.99;96875.94;5028430;28;20076;-81
2022/10/12 04:56:24;;;;;;;36.72;22.75;;;;;;;12.53;96.98;96870.34;5045489;28;20048;-81
2022/10/12 04:58:50;;;;;;;35.72;23.92;;;;;;;12.59;96.86;96871.00;5048609;28;20056;-81
2022/10/12 05:01:17;;;;;;;44.70;24.27;;;;;;;12.58;96.90;96868.56;5046519;28;20052;-81
2022/10/12 05:03:45;;;;;;;38.47;23.25;;;;;;;12.59;97.02;96862.78;5048621;28;20049;-82
2022/10/12 05:06:11;;;;;;;51.22;25.98;;;;;;;12.56;97.32;96862.63;5046732;28;20045;-81
2022/10/12 05:08:38;;;;;;;32.25;21.73;;;;;;;12.58;97.23;96861.19;5047396;28;20045;-82
2022/10/12 05:11:05;;;;;;;42.45;24.63;;;;;;;12.59;97.25;96868.25;5047760;28;20049;-81
2022/10/12 05:13:31;;;;;;;40.20;22.45;;;;;;;12.58;97.40;96866.66;5047807;28;20046;-80
2022/10/12 05:15:58;;;;;;;44.78;24.90;;;;;;;12.52;97.35;96862.44;5043391;28;20045;-80
2022/10/12 05:18:25;;;;;;;41.13;24.25;;;;;;;12.52;97.39;96865.16;5045901;28;20045;-80
2022/10/12 05:20:53;;;;;;;43.67;23.55;;;;;;;12.56;97.05;96863.41;5049630;28;20045;-81
2022/10/12 05:23:19;;;;;;;47.47;24.63;;;;;;;12.60;97.18;96864.41;5045570;28;20045;-81
2022/10/12 05:25:46;;;;;;;45.45;25.48;;;;;;;12.63;97.16;96863.75;5048147;28;20049;-81
2022/10/12 05:28:13;;;;;;;45.97;25.73;;;;;;;12.67;97.21;96864.72;5047452;28;20051;-80
2022/10/12 05:30:39;;;;;;;55.72;26.90;;;;;;;12.68;97.29;96871.00;5048960;28;20072;-80
2022/10/12 05:33:06;;;;;;;45.67;25.67;;;;;;;12.69;97.58;96873.44;5048753;28;20267;-81
2022/10/12 05:35:34;;;;;;;54.78;27.92;;;;;;;12.70;97.60;96874.22;5048009;28;20053;-80
2022/10/12 05:38:02;;;;;;;51.80;26.98;;;;;;;12.68;97.77;96881.91;5047919;28;20045;-79
2022/10/12 05:40:28;;;;;;;52.42;26.88;;;;;;;12.67;97.51;96872.91;5048356;28;20076;-81
2022/10/12 05:42:55;;;;;;;63.53;28.85;;;;;;;12.70;97.61;96869.56;5048572;28;20069;-79
2022/10/12 05:45:21;;;;;;;62.53;29.55;;;;;;;12.70;97.43;96880.50;5048165;28;20049;-80
2022/10/12 05:47:48;;;;;;;56.95;28.95;;;;;;;12.71;97.59;96882.09;5048681;28;20056;-80
2022/10/12 05:50:15;;;;;;;75.25;34.83;;;;;;;12.64;97.99;96881.78;5046338;28;20037;-81
2022/10/12 05:52:41;;;;;;;67.32;32.33;;;;;;;12.63;98.35;96880.13;5048675;28;20046;-82
2022/10/12 05:55:10;;;;;;;63.58;31.77;;;;;;;12.66;98.40;96878.72;5045635;28;20140;-82
2022/10/12 05:57:37;;;;;;;62.05;31.27;;;;;;;12.69;98.44;96881.63;5047787;28;20045;-81
2022/10/12 06:00:05;;;;;;;66.35;30.45;;;;;;;12.74;98.35;96886.94;5047699;28;20057;-83
2022/10/12 06:02:32;;;;;;;67.15;33.45;;;;;;;12.71;98.26;96892.22;5043860;28;20060;-81
2022/10/12 06:04:58;;;;;;;73.93;34.05;;;;;;;12.71;98.19;96890.28;5041016;28;20056;-81
2022/10/12 06:07:25;;;;;;;89.70;36.53;;;;;;;12.66;98.79;96895.09;5036895;28;20526;-80
2022/10/12 06:09:52;;;;;;;86.53;34.47;;;;;;;12.71;98.87;96892.22;5038376;28;20045;-79
2022/10/12 06:12:20;;;;;;;63.28;32.03;;;;;;;12.70;98.96;96891.44;5037638;28;20060;-80
2022/10/12 06:14:46;;;;;;;67.97;32.85;;;;;;;12.73;98.98;96890.75;5035741;28;20051;-81
2022/10/12 06:17:13;;;;;;;62.85;31.55;;;;;;;12.76;99.04;96890.16;5041176;28;20049;-80
2022/10/12 06:19:39;;;;;;;67.68;31.95;;;;;;;12.78;99.21;96898.81;5022937;28;20048;-79
2022/10/12 06:22:06;;;;;;;63.08;31.50;;;;;;;12.82;99.29;96899.00;5038679;28;20055;-80
2022/10/12 06:24:32;;;;;;;63.88;30.70;;;;;;;12.85;99.53;96897.56;5039438;28;20053;-80
2022/10/12 06:26:59;;;;;;;68.25;34.22;;;;;;;12.85;98.83;96908.50;5028496;28;20133;-82
2022/10/12 06:29:30;;;;;;;66.13;33.90;;;;;;;12.88;98.97;96907.84;5043836;28;20067;-80
2022/10/12 06:31:59;;;;;;;62.53;31.85;;;;;;;12.93;98.90;96915.88;5045883;28;20045;-82
2022/10/12 06:34:27;;;;;;;64.15;31.55;;;;;;;12.90;98.81;96906.41;5043828;28;20042;-80
2022/10/12 06:36:53;;;;;;;74.97;33.53;;;;;;;12.88;99.12;96916.03;5044128;28;20057;-79
2022/10/12 06:39:20;;;;;;;70.32;32.05;;;;;;;12.79;99.04;96914.13;5047143;28;20140;-80
2022/10/12 06:41:47;;;;;;;62.80;28.38;;;;;;;12.76;99.06;96917.47;5047073;28;20041;-79
2022/10/12 06:44:13;;;;;;;56.17;27.10;;;;;;;12.80;99.14;96923.13;5042655;28;20125;-80
2022/10/12 06:46:41;;;;;;;83.35;32.22;;;;;;;12.83;99.34;96922.47;5026076;28;20068;-79
2022/10/12 06:49:09;;;;;;;70.05;29.75;;;;;;;12.85;99.41;96919.44;5025571;28;20048;-79
2022/10/12 06:51:35;;;;;;;68.00;30.20;;;;;;;12.84;99.16;96915.88;5040069;28;21018;-81
2022/10/12 06:54:02;;;;;;;73.88;30.80;;;;;;;12.83;99.17;96913.47;5040045;28;20041;-79
2022/10/12 06:56:28;;;;;;;80.05;31.95;;;;;;;12.85;99.27;96916.69;5038979;28;20173;-80
2022/10/12 06:58:55;;;;;;;90.85;35.53;;;;;;;12.87;99.11;96922.63;5038796;28;20049;-80
2022/10/12 07:01:22;;;;;;;96.43;35.53;;;;;;;12.87;98.88;96917.97;5041333;28;20051;-78
2022/10/12 07:03:50;;;;;;;80.63;33.90;;;;;;;12.88;99.24;96921.50;5045222;28;20049;-77
2022/10/12 07:06:17;;;;;;;71.72;33.38;;;;;;;12.90;99.25;96922.00;5044409;28;20042;-78
2022/10/12 07:08:43;;;;;;;66.22;32.25;;;;;;;12.91;99.26;96923.63;5045429;28;20132;-78
2022/10/12 07:11:11;;;;;;;76.55;33.88;;;;;;;12.96;99.53;96926.19;5044689;28;20045;-78
2022/10/12 07:13:39;;;;;;;78.30;34.75;;;;;;;12.98;99.19;96926.66;5044939;28;20052;-78
2022/10/12 07:16:05;;;;;;;83.72;36.47;;;;;;;12.94;99.05;96928.44;5043600;28;20065;-79
2022/10/12 07:18:32;;;;;;;84.18;37.38;;;;;;;12.90;99.21;96928.28;5043583;28;20054;-79
2022/10/12 07:21:01;;;;;;;88.78;39.47;;;;;;;12.88;99.48;96926.97;5043035;28;20066;-79
2022/10/12 07:23:28;;;;;;;78.30;34.95;;;;;;;12.87;99.51;96930.84;5042936;28;20041;-79
2022/10/12 07:25:54;;;;;;;69.03;34.50;;;;;;;12.85;99.27;96917.50;5043521;28;20266;-79
2022/10/12 07:28:21;;;;;;;66.05;31.65;;;;;;;12.88;99.46;96924.25;5042467;28;20055;-78
2022/10/12 07:30:48;;;;;;;67.90;33.92;;;;;;;12.90;99.34;96916.56;5043320;28;20471;-78
2022/10/12 07:33:15;;;;;;;66.18;32.15;;;;;;;12.95;99.27;96919.13;5043000;28;20056;-77
2022/10/12 07:35:41;;;;;;;69.75;32.85;;;;;;;12.97;99.52;96923.13;5042940;28;20053;-76
2022/10/12 07:38:10;;;;;;;69.30;33.00;;;;;;;12.98;99.37;96929.41;5042301;28;20105;-78
2022/10/12 07:40:37;;;;;;;66.03;30.45;;;;;;;13.03;99.35;96932.00;5042324;28;20072;-78
2022/10/12 07:43:03;;;;;;;65.28;32.15;;;;;;;13.10;98.81;96932.31;5040428;28;20068;-79
2022/10/12 07:45:30;;;;;;;64.47;31.02;;;;;;;13.12;98.46;96934.75;5040466;28;20049;-78
2022/10/12 07:47:57;;;;;;;56.22;30.00;;;;;;;13.07;97.37;96936.50;5040781;28;20072;-77
2022/10/12 07:50:24;;;;;;;52.40;27.33;;;;;;;13.09;96.98;96940.84;5039379;28;20441;-79
2022/10/12 07:52:51;;;;;;;53.00;27.38;;;;;;;13.12;97.08;96941.00;5038092;28;20045;-80
2022/10/12 07:55:19;;;;;;;51.17;27.77;;;;;;;13.09;96.76;96941.63;5038213;28;20105;-78
2022/10/12 07:57:45;;;;;;;52.72;27.10;;;;;;;13.09;96.74;96938.91;5039953;28;20045;-78
2022/10/12 08:00:12;;;;;;;41.50;24.83;;;;;;;13.07;96.76;96947.44;5038033;28;20095;-78
2022/10/12 08:02:39;;;;;;;43.38;24.55;;;;;;;13.09;96.88;96941.63;5040478;28;20041;-79
2022/10/12 08:05:07;;;;;;;47.70;26.25;;;;;;;13.11;96.82;96944.06;5037936;28;20065;-80
2022/10/12 08:07:33;;;;;;;49.08;26.13;;;;;;;13.10;96.56;96951.44;5039276;28;20050;-79
2022/10/12 08:10:00;;;;;;;47.03;25.58;;;;;;;13.11;96.29;96955.81;5037671;28;20046;-78
2022/10/12 08:12:28;;;;;;;49.25;25.63;;;;;;;13.07;96.29;96946.63;5035671;28;20034;-78
2022/10/12 08:14:54;;;;;;;44.92;24.42;;;;;;;13.11;96.36;96950.34;5024406;28;20053;-78
2022/10/12 08:17:21;;;;;;;47.60;24.48;;;;;;;13.10;96.20;96951.44;5036582;28;20042;-78
2022/10/12 08:19:47;;;;;;;41.85;21.42;;;;;;;13.11;96.08;96955.00;5037152;28;20042;-80
2022/10/12 08:22:14;;;;;;;50.88;25.35;;;;;;;13.13;95.28;96959.03;5036298;28;20415;-78
2022/10/12 08:24:41;;;;;;;50.85;25.13;;;;;;;13.06;95.14;96954.03;5037864;28;20050;-78
2022/10/12 08:27:07;;;;;;;41.92;23.50;;;;;;;13.08;95.29;96953.72;5037204;28;20061;-79
2022/10/12 08:29:35;;;;;;;51.40;24.88;;;;;;;13.11;95.28;96953.09;5039009;28;20071;-81
2022/10/12 08:32:04;;;;;;;50.38;25.05;;;;;;;13.13;95.33;96952.75;5038530;28;20133;-77
2022/10/12 08:34:31;;;;;;;58.38;25.92;;;;;;;13.11;94.89;96952.28;5037565;28;20045;-79
2022/10/12 08:37:01;;;;;;;45.58;25.63;;;;;;;13.08;95.11;96959.19;5038443;28;20045;-78
2022/10/12 08:39:28;;;;;;;43.55;23.98;;;;;;;13.09;95.38;96952.59;5038070;28;20045;-78
2022/10/12 08:42:06;;;;;;;43.38;23.45;;;;;;;13.14;95.52;96955.16;5037012;28;20432;-78
2022/10/12 08:44:58;;;;;;;50.30;24.60;;;;;;;13.21;95.77;96958.28;5031288;28;20042;-78
2022/10/12 08:47:34;;;;;;;38.75;22.15;;;;;;;13.26;95.95;96958.13;5015345;28;20042;-78
2022/10/12 08:50:04;;;;;;;41.83;23.02;;;;;;;13.29;96.02;96957.47;5019118;28;20050;-79
2022/10/12 08:52:34;;;;;;;45.38;23.70;;;;;;;13.31;94.32;96962.59;5017566;28;20619;-78
2022/10/12 08:55:06;;;;;;;39.47;22.88;;;;;;;13.25;93.52;96956.50;5017791;28;20049;-78
2022/10/12 08:57:34;;;;;;;44.42;22.25;;;;;;;13.23;93.35;96958.75;5033869;28;20038;-78
2022/10/12 09:00:03;;;;;;;36.45;22.13;;;;;;;13.27;93.17;96959.72;5018629;28;20049;-78
2022/10/12 09:02:56;;;;;;;46.05;22.25;;;;;;;13.24;93.02;96960.34;5030835;28;20377;-78
2022/10/12 09:05:31;;;;;;;43.72;23.48;;;;;;;13.19;92.15;96960.47;5031844;28;20046;-78
2022/10/12 09:08:04;;;;;;;40.30;21.90;;;;;;;13.15;92.64;96962.22;5032916;28;20045;-78
2022/10/12 09:10:44;;;;;;;32.80;20.70;;;;;;;13.23;92.95;96960.69;5032163;28;20480;-79
2022/10/12 09:13:21;;;;;;;37.60;21.48;;;;;;;13.28;93.29;96955.84;5032189;28;20136;-78
2022/10/12 09:15:52;;;;;;;37.38;22.48;;;;;;;13.30;93.61;96966.47;5018146;28;20060;-78
2022/10/12 09:18:34;;;;;;;34.70;20.25;;;;;;;13.35;91.64;96965.50;5031771;28;20459;-78
2022/10/12 09:21:05;;;;;;;45.83;22.13;;;;;;;13.29;92.11;96956.66;5032478;28;20057;-78
2022/10/12 09:23:34;;;;;;;38.80;20.77;;;;;;;13.29;92.10;96968.41;5031906;28;20029;-79
2022/10/12 09:26:07;;;;;;;34.00;20.05;;;;;;;13.24;92.00;96960.34;5032885;28;20041;-78
2022/10/12 09:28:36;;;;;;;;;;;;;;;13.30;91.71;96964.53;5032409;28;20048;-79
2022/10/12 09:31:16;;;;;;;38.28;21.17;;;;;;;13.29;91.86;96968.41;5029190;28;19921;-79
2022/10/12 09:33:47;;;;;;;43.70;23.27;;;;;;;13.20;92.53;96964.00;5031109;28;20037;-78
2022/10/12 09:36:19;;;;;;;38.17;22.80;;;;;;;13.24;92.71;96971.28;5014785;28;20050;-78
2022/10/12 09:38:46;;;;;;;40.78;21.50;;;;;;;13.23;92.93;96975.16;5032484;28;20424;-78
2022/10/12 09:41:19;;;;;;;34.90;19.73;;;;;;;13.28;92.74;96971.47;5031304;28;20620;-78
2022/10/12 09:43:47;;;;;;;34.80;19.30;;;;;;;13.29;92.50;96968.41;5041073;28;20045;-78
2022/10/12 09:46:16;;;;;;;37.83;22.35;;;;;;;13.09;93.07;96968.97;5027417;28;20403;-78
2022/10/12 09:48:57;;;;;;;42.50;23.05;;;;;;;13.12;93.32;96967.56;5032387;28;20523;-78
2022/10/12 09:51:24;;;;;;;41.88;21.90;;;;;;;13.17;92.53;96965.47;5030818;28;20049;-78
2022/10/12 09:53:51;;;;;;;33.08;19.67;;;;;;;13.23;92.39;96960.69;5033080;28;20092;-79
2022/10/12 09:56:25;;;;;;;40.03;23.02;;;;;;;13.28;92.89;96961.31;5032430;28;20052;-79
2022/10/12 09:58:55;;;;;;;37.10;22.08;;;;;;;13.14;91.90;96957.91;5032472;28;20099;-80
2022/10/12 10:01:25;;;;;;;33.67;20.33;;;;;;;13.20;91.89;96958.53;5032036;28;20053;-80
2022/10/12 10:04:11;;;;;;;36.95;21.08;;;;;;;13.22;92.08;96957.16;5031492;28;20510;-80
2022/10/12 10:06:40;;;;;;;35.85;19.63;;;;;;;13.32;91.96;96965.03;5031246;28;20042;-79
2022/10/12 10:09:06;;;;;;;42.03;22.00;;;;;;;13.12;92.43;96962.88;5032028;28;20046;-80
2022/10/12 10:11:34;;;;;;;34.78;22.27;;;;;;;13.13;92.30;96964.50;5035132;28;20038;-79
2022/10/12 10:14:01;;;;;;;34.80;21.55;;;;;;;13.26;92.39;96963.59;5043396;28;20109;-79
2022/10/12 10:16:30;;;;;;;37.53;19.85;;;;;;;13.34;92.38;96963.91;5044630;28;20067;-79
2022/10/12 10:18:58;;;;;;;39.17;21.42;;;;;;;13.36;92.53;96962.44;5043117;28;20045;-79
2022/10/12 10:21:29;;;;;;;46.25;22.77;;;;;;;13.34;92.12;96963.91;5042603;28;20045;-79
2022/10/12 10:23:58;;;;;;;44.03;23.63;;;;;;;13.16;91.92;96963.88;5041929;28;20523;-78
2022/10/12 10:26:27;;;;;;;40.95;23.10;;;;;;;13.09;92.21;96968.97;5041781;28;20055;-78
2022/10/12 10:28:58;;;;;;;35.22;20.65;;;;;;;12.90;94.02;96980.22;5041992;28;20053;-78
2022/10/12 10:31:28;;;;;;;37.75;21.95;;;;;;;12.88;93.84;96973.44;5041488;28;20045;-79
2022/10/12 10:34:23;;;;;;;37.08;20.70;;;;;;;13.09;93.36;96963.53;5041513;28;20053;-79
2022/10/12 10:36:52;;;;;;;32.38;20.73;;;;;;;13.27;93.15;96965.19;5027898;28;20056;-79
2022/10/12 10:39:23;;;;;;;38.10;20.88;;;;;;;13.39;92.94;96961.03;5041023;28;20105;-79
2022/10/12 10:41:50;;;;;;;33.05;19.95;;;;;;;13.49;92.17;96966.16;5042036;28;20038;-79
2022/10/12 10:44:26;;;;;;;40.83;21.13;;;;;;;13.56;91.84;96966.47;5036204;28;20543;-80
2022/10/12 10:46:53;;;;;;;34.85;20.45;;;;;;;13.66;91.16;96966.16;5022697;28;20520;-79
2022/10/12 10:49:29;;;;;;;31.65;19.58;;;;;;;13.64;90.36;96968.44;5037301;28;20053;-79
2022/10/12 10:51:59;;;;;;;34.05;19.92;;;;;;;13.67;90.43;96966.97;5041680;28;20387;-79
2022/10/12 10:54:28;;;;;;;33.58;19.30;;;;;;;13.67;89.60;96956.00;5041979;28;20041;-80
2022/10/12 10:57:00;;;;;;;32.80;19.35;;;;;;;13.71;90.02;96956.97;5041591;28;20042;-79
2022/10/12 10:59:36;;;;;;;33.87;19.63;;;;;;;13.71;89.73;96957.78;5041687;28;20049;-80
2022/10/12 11:02:16;;;;;;;37.42;20.25;;;;;;;13.72;88.71;96948.44;5039714;28;20049;-79
2022/10/12 11:04:48;;;;;;;35.72;21.80;;;;;;;13.70;89.32;96950.72;5038078;28;20049;-79
2022/10/12 11:07:21;;;;;;;39.97;19.60;;;;;;;13.72;89.60;96948.44;5038946;28;20053;-79
2022/10/12 11:09:53;;;;;;;31.17;20.08;;;;;;;13.71;89.62;96949.56;5038573;28;20148;-79
2022/10/12 11:12:25;;;;;;;28.58;18.50;;;;;;;13.73;89.65;96944.59;5036836;28;20045;-79
2022/10/12 11:14:55;;;;;;;27.83;17.45;;;;;;;13.79;89.53;96945.22;5034175;28;20052;-80
2022/10/12 11:17:26;;;;;;;28.70;16.67;;;;;;;13.87;89.42;96949.06;5035469;28;20055;-80
2022/10/12 11:20:03;;;;;;;34.22;19.98;;;;;;;13.96;88.87;96947.13;5037567;28;20053;-80
2022/10/12 11:22:38;;;;;;;30.23;18.85;;;;;;;13.95;88.47;96940.06;5035968;28;20037;-80
2022/10/12 11:25:10;;;;;;;35.85;19.20;;;;;;;13.96;88.33;96936.19;5035385;28;20068;-78